sensor_id;sensor_type;location;lat;lon;timestamp;pressure;altitude;pressure_sealevel;temperature;humidity
20624;BME280;10471;42.736;23.346;2024-02-23T00:01:55;95310.66;;;7.23;100.00
20624;BME280;10471;42.736;23.346;2024-02-23T00:04:21;95308.56;;;7.25;100.00
20624;BME280;10471;42.736;23.346;2024-02-23T00:06:46;95309.59;;;7.24;100.00
20624;BME280;10471;42.736;23.346;2024-02-23T00:09:12;95315.09;;;7.22;100.00
20624;BME280;10471;42.736;23.346;2024-02-23T00:11:40;95306.97;;;7.24;100.00
20624;BME280;10471;42.736;23.346;2024-02-23T00:14:12;95316.38;;;7.20;100.00
20624;BME280;10471;42.736;23.346;2024-02-23T00:16:41;95306.44;;;7.22;100.00
20624;BME280;10471;42.736;23.346;2024-02-23T00:19:10;95303.28;;;7.20;100.00
20624;BME280;10471;42.736;23.346;2024-02-23T00:21:39;95301.72;;;7.19;100.00
20624;BME280;10471;42.736;23.346;2024-02-23T00:24:06;95295.13;;;7.12;100.00
20624;BME280;10471;42.736;23.346;2024-02-23T00:26:31;95292.16;;;6.98;100.00
20624;BME280;10471;42.736;23.346;2024-02-23T00:28:56;95285.28;;;6.82;100.00
20624;BME280;10471;42.736;23.346;2024-02-23T00:31:22;95288.19;;;6.86;100.00
20624;BME280;10471;42.736;23.346;2024-02-23T00:33:47;95294.22;;;6.86;100.00
20624;BME280;10471;42.736;23.346;2024-02-23T00:36:13;95285.81;;;6.84;100.00
20624;BME280;10471;42.736;23.346;2024-02-23T00:38:38;95291.34;;;6.88;100.00
20624;BME280;10471;42.736;23.346;2024-02-23T00:41:03;95281.94;;;6.92;100.00
20624;BME280;10471;42.736;23.346;2024-02-23T00:43:30;95285.81;;;6.84;100.00
20624;BME280;10471;42.736;23.346;2024-02-23T00:45:55;95278.72;;;6.80;100.00
20624;BME280;10471;42.736;23.346;2024-02-23T00:48:20;95271.06;;;6.68;100.00
20624;BME280;10471;42.736;23.346;2024-02-23T00:50:46;95272.13;;;6.72;100.00
20624;BME280;10471;42.736;23.346;2024-02-23T00:53:11;95274.78;;;6.77;100.00
20624;BME280;10471;42.736;23.346;2024-02-23T00:55:37;95273.97;;;6.72;100.00
20624;BME280;10471;42.736;23.346;2024-02-23T00:58:02;95272.06;;;6.62;100.00
20624;BME280;10471;42.736;23.346;2024-02-23T01:00:29;95271.03;;;6.63;100.00
20624;BME280;10471;42.736;23.346;2024-02-23T01:02:54;95274.19;;;6.65;100.00
20624;BME280;10471;42.736;23.346;2024-02-23T01:05:20;95263.72;;;6.65;100.00
20624;BME280;10471;42.736;23.346;2024-02-23T01:07:45;95261.59;;;6.62;100.00
20624;BME280;10471;42.736;23.346;2024-02-23T01:10:10;95265.25;;;6.61;100.00
20624;BME280;10471;42.736;23.346;2024-02-23T01:12:36;95267.84;;;6.56;100.00
20624;BME280;10471;42.736;23.346;2024-02-23T01:15:01;95261.03;;;6.51;100.00
20624;BME280;10471;42.736;23.346;2024-02-23T01:17:27;95259.81;;;6.32;100.00
20624;BME280;10471;42.736;23.346;2024-02-23T01:19:52;95250.38;;;6.26;100.00
20624;BME280;10471;42.736;23.346;2024-02-23T01:22:17;95254.31;;;6.28;100.00
20624;BME280;10471;42.736;23.346;2024-02-23T01:24:43;95246.22;;;6.30;100.00
20624;BME280;10471;42.736;23.346;2024-02-23T01:27:08;95243.13;;;6.38;100.00
20624;BME280;10471;42.736;23.346;2024-02-23T01:29:34;95239.78;;;6.47;100.00
20624;BME280;10471;42.736;23.346;2024-02-23T01:31:59;95248.72;;;6.51;100.00
20624;BME280;10471;42.736;23.346;2024-02-23T01:34:25;95243.44;;;6.46;100.00
20624;BME280;10471;42.736;23.346;2024-02-23T01:36:51;95237.41;;;6.46;100.00
20624;BME280;10471;42.736;23.346;2024-02-23T01:39:16;95240.81;;;6.41;100.00
20624;BME280;10471;42.736;23.346;2024-02-23T01:41:41;95236.31;;;6.37;100.00
20624;BME280;10471;42.736;23.346;2024-02-23T01:44:10;95230.03;;;6.38;100.00
20624;BME280;10471;42.736;23.346;2024-02-23T01:46:35;95230.59;;;6.40;100.00
20624;BME280;10471;42.736;23.346;2024-02-23T01:49:01;95226.13;;;6.40;100.00
20624;BME280;10471;42.736;23.346;2024-02-23T01:51:26;95228.22;;;6.38;100.00
20624;BME280;10471;42.736;23.346;2024-02-23T01:53:52;95230.84;;;6.43;100.00
20624;BME280;10471;42.736;23.346;2024-02-23T01:56:17;95230.06;;;6.43;100.00
20624;BME280;10471;42.736;23.346;2024-02-23T01:58:43;95228.78;;;6.45;100.00
20624;BME280;10471;42.736;23.346;2024-02-23T02:01:10;95221.69;;;6.41;100.00
20624;BME280;10471;42.736;23.346;2024-02-23T02:03:38;95219.88;;;6.41;100.00
20624;BME280;10471;42.736;23.346;2024-02-23T02:06:04;95214.13;;;6.44;100.00
20624;BME280;10471;42.736;23.346;2024-02-23T02:08:30;95210.44;;;6.40;100.00
20624;BME280;10471;42.736;23.346;2024-02-23T02:10:55;95215.38;;;6.37;100.00
20624;BME280;10471;42.736;23.346;2024-02-23T02:13:21;95207.50;;;6.32;100.00
20624;BME280;10471;42.736;23.346;2024-02-23T02:15:47;95205.38;;;6.24;100.00
20624;BME280;10471;42.736;23.346;2024-02-23T02:18:12;95217.94;;;6.27;100.00
20624;BME280;10471;42.736;23.346;2024-02-23T02:20:40;95218.41;;;6.19;100.00
20624;BME280;10471;42.736;23.346;2024-02-23T02:23:15;95207.69;;;6.20;100.00
20624;BME280;10471;42.736;23.346;2024-02-23T02:25:40;95213.91;;;6.09;100.00
20624;BME280;10471;42.736;23.346;2024-02-23T02:28:06;95215.16;;;6.02;100.00
20624;BME280;10471;42.736;23.346;2024-02-23T02:30:33;95213.31;;;6.02;100.00
20624;BME280;10471;42.736;23.346;2024-02-23T02:32:58;95216.19;;;6.01;100.00
20624;BME280;10471;42.736;23.346;2024-02-23T02:35:23;95206.75;;;6.00;100.00
20624;BME280;10471;42.736;23.346;2024-02-23T02:37:49;95211.94;;;5.95;100.00
20624;BME280;10471;42.736;23.346;2024-02-23T02:40:14;95206.47;;;5.96;100.00
20624;BME280;10471;42.736;23.346;2024-02-23T02:42:40;95209.88;;;5.97;100.00
20624;BME280;10471;42.736;23.346;2024-02-23T02:45:05;95205.44;;;5.97;100.00
20624;BME280;10471;42.736;23.346;2024-02-23T02:47:31;95203.03;;;5.91;100.00
20624;BME280;10471;42.736;23.346;2024-02-23T02:49:56;95197.81;;;5.91;100.00
20624;BME280;10471;42.736;23.346;2024-02-23T02:52:22;95197.81;;;5.91;100.00
20624;BME280;10471;42.736;23.346;2024-02-23T02:54:48;95199.91;;;5.94;100.00
20624;BME280;10471;42.736;23.346;2024-02-23T02:57:14;95213.16;;;5.83;100.00
20624;BME280;10471;42.736;23.346;2024-02-23T02:59:39;95205.06;;;5.84;100.00
20624;BME280;10471;42.736;23.346;2024-02-23T03:02:05;95203.22;;;5.80;100.00
20624;BME280;10471;42.736;23.346;2024-02-23T03:04:30;95213.38;;;5.76;100.00
20624;BME280;10471;42.736;23.346;2024-02-23T03:06:55;95211.31;;;5.78;100.00
20624;BME280;10471;42.736;23.346;2024-02-23T03:09:21;95213.97;;;5.83;100.00
20624;BME280;10471;42.736;23.346;2024-02-23T03:11:46;95217.31;;;5.79;100.00
20624;BME280;10471;42.736;23.346;2024-02-23T03:14:12;95225.41;;;5.77;100.00
20624;BME280;10471;42.736;23.346;2024-02-23T03:16:37;95221.25;;;5.81;100.00
20624;BME280;10471;42.736;23.346;2024-02-23T03:19:03;95223.38;;;5.84;100.00
20624;BME280;10471;42.736;23.346;2024-02-23T03:21:29;95215.03;;;5.87;100.00
20624;BME280;10471;42.736;23.346;2024-02-23T03:23:55;95210.84;;;5.86;100.00
20624;BME280;10471;42.736;23.346;2024-02-23T03:26:20;95218.69;;;5.86;100.00
20624;BME280;10471;42.736;23.346;2024-02-23T03:28:46;95213.97;;;5.83;100.00
20624;BME280;10471;42.736;23.346;2024-02-23T03:31:11;95214.75;;;5.84;100.00
20624;BME280;10471;42.736;23.346;2024-02-23T03:33:37;95219.69;;;5.80;100.00
20624;BME280;10471;42.736;23.346;2024-02-23T03:36:03;95220.25;;;5.87;100.00
20624;BME280;10471;42.736;23.346;2024-02-23T03:38:29;95218.75;;;5.96;100.00
20624;BME280;10471;42.736;23.346;2024-02-23T03:40:55;95209.38;;;6.00;100.00
20624;BME280;10471;42.736;23.346;2024-02-23T03:43:20;95206.28;;;6.03;100.00
20624;BME280;10471;42.736;23.346;2024-02-23T03:45:46;95212.56;;;6.07;100.00
20624;BME280;10471;42.736;23.346;2024-02-23T03:48:11;95218.38;;;6.14;100.00
20624;BME280;10471;42.736;23.346;2024-02-23T03:50:37;95228.31;;;6.12;100.00
20624;BME280;10471;42.736;23.346;2024-02-23T03:53:02;95219.97;;;6.20;100.00
20624;BME280;10471;42.736;23.346;2024-02-23T03:55:29;95225.19;;;6.20;100.00
20624;BME280;10471;42.736;23.346;2024-02-23T03:57:54;95220.19;;;6.13;100.00
20624;BME280;10471;42.736;23.346;2024-02-23T04:00:19;95219.41;;;6.13;100.00
20624;BME280;10471;42.736;23.346;2024-02-23T04:02:45;95213.94;;;6.14;100.00
20624;BME280;10471;42.736;23.346;2024-02-23T04:05:11;95216.25;;;6.11;100.00
20624;BME280;10471;42.736;23.346;2024-02-23T04:07:36;95223.59;;;6.09;100.00
20624;BME280;10471;42.736;23.346;2024-02-23T04:10:02;95228.25;;;6.07;100.00
20624;BME280;10471;42.736;23.346;2024-02-23T04:12:29;95223.59;;;6.09;100.00
20624;BME280;10471;42.736;23.346;2024-02-23T04:14:56;95225.72;;;6.17;100.00
20624;BME280;10471;42.736;23.346;2024-02-23T04:17:21;95227.78;;;6.15;100.00
20624;BME280;10471;42.736;23.346;2024-02-23T04:19:47;95220.50;;;6.17;100.00
20624;BME280;10471;42.736;23.346;2024-02-23T04:22:12;95231.25;;;6.20;100.00
20624;BME280;10471;42.736;23.346;2024-02-23T04:24:39;95230.63;;;6.08;100.00
20624;BME280;10471;42.736;23.346;2024-02-23T04:27:05;95231.88;;;6.01;100.00
20624;BME280;10471;42.736;23.346;2024-02-23T04:29:31;95231.56;;;5.97;100.00
20624;BME280;10471;42.736;23.346;2024-02-23T04:31:57;95224.00;;;5.96;100.00
20624;BME280;10471;42.736;23.346;2024-02-23T04:34:23;95233.13;;;5.93;100.00
20624;BME280;10471;42.736;23.346;2024-02-23T04:36:48;95230.72;;;5.87;100.00
20624;BME280;10471;42.736;23.346;2024-02-23T04:39:14;95221.25;;;5.81;100.00
20624;BME280;10471;42.736;23.346;2024-02-23T04:41:39;95226.44;;;5.76;100.00
20624;BME280;10471;42.736;23.346;2024-02-23T04:44:05;95216.44;;;5.73;100.00
20624;BME280;10471;42.736;23.346;2024-02-23T04:46:30;95232.75;;;5.54;100.00
20624;BME280;10471;42.736;23.346;2024-02-23T04:48:56;95244.81;;;5.33;100.00
20624;BME280;10471;42.736;23.346;2024-02-23T04:51:21;95238.19;;;5.26;100.00
20624;BME280;10471;42.736;23.346;2024-02-23T04:53:48;95245.31;;;5.30;100.00
20624;BME280;10471;42.736;23.346;2024-02-23T04:56:14;95234.88;;;5.30;100.00
20624;BME280;10471;42.736;23.346;2024-02-23T04:58:39;95238.50;;;5.29;100.00
20624;BME280;10471;42.736;23.346;2024-02-23T05:01:06;95239.59;;;5.33;100.00
20624;BME280;10471;42.736;23.346;2024-02-23T05:03:31;95232.78;;;5.32;100.00
20624;BME280;10471;42.736;23.346;2024-02-23T05:05:57;95231.03;;;5.38;100.00
20624;BME280;10471;42.736;23.346;2024-02-23T05:08:23;95236.72;;;5.35;100.00
20624;BME280;10471;42.736;23.346;2024-02-23T05:10:50;95244.03;;;5.33;100.00
20624;BME280;10471;42.736;23.346;2024-02-23T05:13:16;95238.50;;;5.29;100.00
20624;BME280;10471;42.736;23.346;2024-02-23T05:15:41;95245.31;;;5.30;100.00
20624;BME280;10471;42.736;23.346;2024-02-23T05:18:07;95248.44;;;5.32;100.00
20624;BME280;10471;42.736;23.346;2024-02-23T05:20:32;95249.72;;;5.30;100.00
20624;BME280;10471;42.736;23.346;2024-02-23T05:22:57;95248.94;;;5.29;100.00
20624;BME280;10471;42.736;23.346;2024-02-23T05:25:23;95258.72;;;5.18;100.00
20624;BME280;10471;42.736;23.346;2024-02-23T05:27:48;95267.84;;;5.15;100.00
20624;BME280;10471;42.736;23.346;2024-02-23T05:30:14;95271.72;;;5.13;100.00
20624;BME280;10471;42.736;23.346;2024-02-23T05:32:39;95275.94;;;4.92;100.00
20624;BME280;10471;42.736;23.346;2024-02-23T05:35:05;95265.56;;;4.97;100.00
20624;BME280;10471;42.736;23.346;2024-02-23T05:37:30;95272.72;;;4.85;100.00
20624;BME280;10471;42.736;23.346;2024-02-23T05:39:56;95276.53;;;4.78;100.00
20624;BME280;10471;42.736;23.346;2024-02-23T05:42:22;95268.31;;;4.91;100.00
20624;BME280;10471;42.736;23.346;2024-02-23T05:44:48;95262.69;;;4.99;100.00
20624;BME280;10471;42.736;23.346;2024-02-23T05:47:16;95264.81;;;5.02;100.00
20624;BME280;10471;42.736;23.346;2024-02-23T05:49:41;95274.53;;;5.06;100.00
20624;BME280;10471;42.736;23.346;2024-02-23T05:52:06;95272.53;;;5.13;100.00
20624;BME280;10471;42.736;23.346;2024-02-23T05:54:32;95278.84;;;5.17;100.00
20624;BME280;10471;42.736;23.346;2024-02-23T05:56:57;95278.09;;;5.21;100.00
20624;BME280;10471;42.736;23.346;2024-02-23T05:59:22;95291.72;;;5.23;100.00
20624;BME280;10471;42.736;23.346;2024-02-23T06:01:48;95286.78;;;5.27;100.00
20624;BME280;10471;42.736;23.346;2024-02-23T06:04:13;95288.75;;;5.36;100.00
20624;BME280;10471;42.736;23.346;2024-02-23T06:06:42;95293.22;;;5.41;100.00
20624;BME280;10471;42.736;23.346;2024-02-23T06:09:08;95289.94;;;5.50;100.00
20624;BME280;10471;42.736;23.346;2024-02-23T06:11:33;95296.28;;;5.59;100.00
20624;BME280;10471;42.736;23.346;2024-02-23T06:13:59;95299.56;;;5.71;100.00
20624;BME280;10471;42.736;23.346;2024-02-23T06:16:24;95301.25;;;5.82;100.00
20624;BME280;10471;42.736;23.346;2024-02-23T06:18:50;95299.22;;;5.89;100.00
20624;BME280;10471;42.736;23.346;2024-02-23T06:21:17;95296.44;;;5.95;100.00
20624;BME280;10471;42.736;23.346;2024-02-23T06:23:45;95292.06;;;6.06;100.00
20624;BME280;10471;42.736;23.346;2024-02-23T06:26:11;95301.03;;;6.15;100.00
20624;BME280;10471;42.736;23.346;2024-02-23T06:28:36;95295.91;;;6.25;100.00
20624;BME280;10471;42.736;23.346;2024-02-23T06:31:05;95301.22;;;6.35;100.00
20624;BME280;10471;42.736;23.346;2024-02-23T06:33:31;95290.81;;;6.45;100.00
20624;BME280;10471;42.736;23.346;2024-02-23T06:35:56;95308.16;;;6.55;100.00
20624;BME280;10471;42.736;23.346;2024-02-23T06:38:21;95311.06;;;6.64;100.00
20624;BME280;10471;42.736;23.346;2024-02-23T06:40:47;95298.31;;;6.72;100.00
20624;BME280;10471;42.736;23.346;2024-02-23T06:43:12;95302.53;;;6.78;100.00
20624;BME280;10471;42.736;23.346;2024-02-23T06:45:38;95302.59;;;6.88;100.00
20624;BME280;10471;42.736;23.346;2024-02-23T06:48:03;95302.41;;;6.95;100.00
20624;BME280;10471;42.736;23.346;2024-02-23T06:50:29;95310.03;;;7.01;100.00
20624;BME280;10471;42.736;23.346;2024-02-23T06:52:54;95305.63;;;7.16;100.00
20624;BME280;10471;42.736;23.346;2024-02-23T06:55:20;95311.44;;;7.23;100.00
20624;BME280;10471;42.736;23.346;2024-02-23T06:57:46;95323.53;;;7.34;100.00
20624;BME280;10471;42.736;23.346;2024-02-23T07:00:12;95319.09;;;7.45;100.00
20624;BME280;10471;42.736;23.346;2024-02-23T07:02:38;95323.06;;;7.52;100.00
20624;BME280;10471;42.736;23.346;2024-02-23T07:05:04;95319.69;;;7.62;100.00
20624;BME280;10471;42.736;23.346;2024-02-23T07:07:31;95316.59;;;7.70;100.00
20624;BME280;10471;42.736;23.346;2024-02-23T07:10:01;95315.03;;;7.79;100.00
20624;BME280;10471;42.736;23.346;2024-02-23T07:12:26;95319.25;;;7.89;100.00
20624;BME280;10471;42.736;23.346;2024-02-23T07:14:54;95309.06;;;7.98;100.00
20624;BME280;10471;42.736;23.346;2024-02-23T07:17:20;95313.50;;;8.12;100.00
20624;BME280;10471;42.736;23.346;2024-02-23T07:19:45;95317.25;;;8.26;100.00
20624;BME280;10471;42.736;23.346;2024-02-23T07:22:11;95309.38;;;8.36;100.00
20624;BME280;10471;42.736;23.346;2024-02-23T07:24:40;95311.19;;;8.46;100.00
20624;BME280;10471;42.736;23.346;2024-02-23T07:27:06;95302.03;;;8.63;100.00
20624;BME280;10471;42.736;23.346;2024-02-23T07:29:31;95296.75;;;8.73;100.00
20624;BME280;10471;42.736;23.346;2024-02-23T07:31:56;95294.59;;;8.85;100.00
20624;BME280;10471;42.736;23.346;2024-02-23T07:34:22;95296.97;;;8.96;100.00
20624;BME280;10471;42.736;23.346;2024-02-23T07:36:47;95302.97;;;9.07;100.00
20624;BME280;10471;42.736;23.346;2024-02-23T07:39:13;95303.97;;;9.20;100.00
20624;BME280;10471;42.736;23.346;2024-02-23T07:41:38;95291.59;;;9.36;100.00
20624;BME280;10471;42.736;23.346;2024-02-23T07:44:04;95290.25;;;9.38;100.00
20624;BME280;10471;42.736;23.346;2024-02-23T07:46:29;95295.50;;;9.38;100.00
20624;BME280;10471;42.736;23.346;2024-02-23T07:48:54;95296.28;;;9.39;100.00
20624;BME280;10471;42.736;23.346;2024-02-23T07:51:20;95298.69;;;9.40;100.00
20624;BME280;10471;42.736;23.346;2024-02-23T07:53:45;95307.03;;;9.52;100.00
20624;BME280;10471;42.736;23.346;2024-02-23T07:56:10;95296.75;;;9.56;100.00
20624;BME280;10471;42.736;23.346;2024-02-23T07:58:37;95302.78;;;9.66;100.00
20624;BME280;10471;42.736;23.346;2024-02-23T08:01:03;95299.56;;;9.74;100.00
20624;BME280;10471;42.736;23.346;2024-02-23T08:03:29;95294.25;;;9.84;100.00
20624;BME280;10471;42.736;23.346;2024-02-23T08:05:54;95297.88;;;9.93;100.00
20624;BME280;10471;42.736;23.346;2024-02-23T08:08:20;95297.81;;;10.08;100.00
20624;BME280;10471;42.736;23.346;2024-02-23T08:10:47;95301.38;;;10.27;100.00
20624;BME280;10471;42.736;23.346;2024-02-23T08:13:13;95300.28;;;10.33;100.00
20624;BME280;10471;42.736;23.346;2024-02-23T08:15:38;95299.69;;;10.41;100.00
20624;BME280;10471;42.736;23.346;2024-02-23T08:18:04;95300.63;;;10.54;100.00
20624;BME280;10471;42.736;23.346;2024-02-23T08:20:29;95306.31;;;10.66;100.00
20624;BME280;10471;42.736;23.346;2024-02-23T08:22:54;95294.19;;;10.70;100.00
20624;BME280;10471;42.736;23.346;2024-02-23T08:25:20;95302.19;;;10.84;100.00
20624;BME280;10471;42.736;23.346;2024-02-23T08:27:45;95297.91;;;10.93;100.00
20624;BME280;10471;42.736;23.346;2024-02-23T08:30:13;95293.31;;;11.03;100.00
20624;BME280;10471;42.736;23.346;2024-02-23T08:32:38;95291.19;;;11.05;100.00
20624;BME280;10471;42.736;23.346;2024-02-23T08:35:04;95297.94;;;11.16;100.00
20624;BME280;10471;42.736;23.346;2024-02-23T08:37:29;95291.50;;;11.27;100.00
20624;BME280;10471;42.736;23.346;2024-02-23T08:39:55;95288.22;;;11.35;100.00
20624;BME280;10471;42.736;23.346;2024-02-23T08:42:21;95290.97;;;11.48;100.00
20624;BME280;10471;42.736;23.346;2024-02-23T08:44:46;95294.25;;;11.64;100.00
20624;BME280;10471;42.736;23.346;2024-02-23T08:47:12;95288.91;;;11.69;100.00
20624;BME280;10471;42.736;23.346;2024-02-23T08:49:37;95290.38;;;11.75;100.00
20624;BME280;10471;42.736;23.346;2024-02-23T08:52:03;95293.47;;;11.81;100.00
20624;BME280;10471;42.736;23.346;2024-02-23T08:54:29;95285.41;;;11.91;100.00
20624;BME280;10471;42.736;23.346;2024-02-23T08:56:54;95281.44;;;12.12;100.00
20624;BME280;10471;42.736;23.346;2024-02-23T08:59:20;95286.41;;;12.32;100.00
20624;BME280;10471;42.736;23.346;2024-02-23T09:01:45;95286.88;;;12.52;100.00
20624;BME280;10471;42.736;23.346;2024-02-23T09:04:12;95284.94;;;12.58;98.20
20624;BME280;10471;42.736;23.346;2024-02-23T09:06:38;95280.72;;;12.75;100.00
20624;BME280;10471;42.736;23.346;2024-02-23T09:09:03;95274.19;;;13.00;96.13
20624;BME280;10471;42.736;23.346;2024-02-23T09:11:28;95271.56;;;13.13;97.03
20624;BME280;10471;42.736;23.346;2024-02-23T09:13:54;95275.09;;;13.35;91.75
20624;BME280;10471;42.736;23.346;2024-02-23T09:16:19;95283.84;;;13.49;90.42
20624;BME280;10471;42.736;23.346;2024-02-23T09:18:46;95283.56;;;13.64;83.69
20624;BME280;10471;42.736;23.346;2024-02-23T09:21:12;95283.16;;;13.71;83.67
20624;BME280;10471;42.736;23.346;2024-02-23T09:23:37;95282.16;;;13.80;81.26
20624;BME280;10471;42.736;23.346;2024-02-23T09:26:08;95277.63;;;13.94;79.08
20624;BME280;10471;42.736;23.346;2024-02-23T09:28:34;95275.25;;;14.06;80.14
20624;BME280;10471;42.736;23.346;2024-02-23T09:31:00;95268.06;;;14.20;81.66
20624;BME280;10471;42.736;23.346;2024-02-23T09:33:25;95270.22;;;14.40;78.59
20624;BME280;10471;42.736;23.346;2024-02-23T09:35:50;95269.28;;;14.57;79.82
20624;BME280;10471;42.736;23.346;2024-02-23T09:38:16;95264.69;;;14.71;78.63
20624;BME280;10471;42.736;23.346;2024-02-23T09:40:41;95269.50;;;14.91;77.24
20624;BME280;10471;42.736;23.346;2024-02-23T09:43:07;95271.88;;;14.93;74.45
20624;BME280;10471;42.736;23.346;2024-02-23T09:45:33;95272.13;;;14.91;72.31
20624;BME280;10471;42.736;23.346;2024-02-23T09:48:00;95275.81;;;15.04;74.18
20624;BME280;10471;42.736;23.346;2024-02-23T09:50:29;95272.28;;;15.16;73.83
20624;BME280;10471;42.736;23.346;2024-02-23T09:52:56;95268.63;;;15.26;73.04
20624;BME280;10471;42.736;23.346;2024-02-23T09:55:23;95261.84;;;15.50;72.39
20624;BME280;10471;42.736;23.346;2024-02-23T09:57:51;95265.47;;;15.63;68.98
20624;BME280;10471;42.736;23.346;2024-02-23T10:00:20;95259.19;;;15.59;66.75
20624;BME280;10471;42.736;23.346;2024-02-23T10:02:46;95247.53;;;15.76;66.97
20624;BME280;10471;42.736;23.346;2024-02-23T10:05:12;95253.47;;;15.90;65.90
20624;BME280;10471;42.736;23.346;2024-02-23T10:07:39;95249.13;;;15.86;63.55
20624;BME280;10471;42.736;23.346;2024-02-23T10:10:08;95249.41;;;15.76;65.82
20624;BME280;10471;42.736;23.346;2024-02-23T10:12:34;95243.47;;;15.79;65.25
20624;BME280;10471;42.736;23.346;2024-02-23T10:15:01;95241.13;;;16.03;62.29
20624;BME280;10471;42.736;23.346;2024-02-23T10:17:32;95259.72;;;15.77;62.63
20624;BME280;10471;42.736;23.346;2024-02-23T10:19:59;95251.00;;;16.02;62.32
20624;BME280;10471;42.736;23.346;2024-02-23T10:22:24;95237.88;;;16.14;61.51
20624;BME280;10471;42.736;23.346;2024-02-23T10:24:51;95238.34;;;16.08;60.33
20624;BME280;10471;42.736;23.346;2024-02-23T10:27:16;95243.84;;;16.28;60.32
20624;BME280;10471;42.736;23.346;2024-02-23T10:29:42;95232.91;;;16.38;59.85
20624;BME280;10471;42.736;23.346;2024-02-23T10:32:10;95234.78;;;16.46;59.38
20624;BME280;10471;42.736;23.346;2024-02-23T10:34:42;95228.00;;;16.06;58.78
20624;BME280;10471;42.736;23.346;2024-02-23T10:37:07;95225.38;;;16.23;59.93
20624;BME280;10471;42.736;23.346;2024-02-23T10:39:36;95219.91;;;16.45;59.45
20624;BME280;10471;42.736;23.346;2024-02-23T10:42:03;95225.19;;;16.20;59.00
20624;BME280;10471;42.736;23.346;2024-02-23T10:44:30;95203.97;;;16.37;58.44
20624;BME280;10471;42.736;23.346;2024-02-23T10:46:58;95205.19;;;16.22;58.74
20624;BME280;10471;42.736;23.346;2024-02-23T10:49:24;95197.84;;;16.36;58.06
20624;BME280;10471;42.736;23.346;2024-02-23T10:51:53;95196.31;;;16.35;58.87
20624;BME280;10471;42.736;23.346;2024-02-23T10:54:20;95200.16;;;16.54;57.85
20624;BME280;10471;42.736;23.346;2024-02-23T10:56:49;95194.31;;;16.78;56.32
20624;BME280;10471;42.736;23.346;2024-02-23T10:59:15;95183.84;;;16.73;57.28
20624;BME280;10471;42.736;23.346;2024-02-23T11:01:46;95180.25;;;16.77;57.51
20624;BME280;10471;42.736;23.346;2024-02-23T11:04:16;95176.91;;;16.89;55.72
20624;BME280;10471;42.736;23.346;2024-02-23T11:06:41;95177.63;;;17.06;55.29
20624;BME280;10471;42.736;23.346;2024-02-23T11:09:08;95161.41;;;17.28;55.74
20624;BME280;10471;42.736;23.346;2024-02-23T11:11:37;95168.97;;;17.26;54.36
20624;BME280;10471;42.736;23.346;2024-02-23T11:14:03;95170.66;;;17.22;55.02
20624;BME280;10471;42.736;23.346;2024-02-23T11:16:32;95161.13;;;17.21;54.53
20624;BME280;10471;42.736;23.346;2024-02-23T11:19:08;95166.25;;;16.89;56.10
20624;BME280;10471;42.736;23.346;2024-02-23T11:21:38;95157.78;;;16.95;54.62
20624;BME280;10471;42.736;23.346;2024-02-23T11:24:04;95155.56;;;16.97;55.38
20624;BME280;10471;42.736;23.346;2024-02-23T11:26:30;95150.75;;;16.45;56.62
20624;BME280;10471;42.736;23.346;2024-02-23T11:28:57;95148.84;;;16.45;57.37
20624;BME280;10471;42.736;23.346;2024-02-23T11:31:25;95152.06;;;16.68;56.69
20624;BME280;10471;42.736;23.346;2024-02-23T11:33:57;95137.41;;;16.99;55.90
20624;BME280;10471;42.736;23.346;2024-02-23T11:36:29;95141.25;;;17.18;54.45
20624;BME280;10471;42.736;23.346;2024-02-23T11:38:57;95140.28;;;17.14;54.67
20624;BME280;10471;42.736;23.346;2024-02-23T11:41:23;95137.78;;;16.89;53.84
20624;BME280;10471;42.736;23.346;2024-02-23T11:43:50;95136.50;;;16.95;54.50
20624;BME280;10471;42.736;23.346;2024-02-23T11:46:16;95136.31;;;17.00;54.92
20624;BME280;10471;42.736;23.346;2024-02-23T11:48:42;95136.19;;;17.25;53.46
20624;BME280;10471;42.736;23.346;2024-02-23T11:51:09;95133.78;;;17.61;53.27
20624;BME280;10471;42.736;23.346;2024-02-23T11:53:36;95132.69;;;17.62;51.73
20624;BME280;10471;42.736;23.346;2024-02-23T11:56:04;95128.59;;;17.65;51.99
20624;BME280;10471;42.736;23.346;2024-02-23T11:58:30;95121.38;;;17.65;51.52
20624;BME280;10471;42.736;23.346;2024-02-23T12:00:55;95122.22;;;17.57;51.21
20624;BME280;10471;42.736;23.346;2024-02-23T12:03:22;95119.22;;;17.59;50.48
20624;BME280;10471;42.736;23.346;2024-02-23T12:05:49;95118.00;;;17.76;51.22
20624;BME280;10471;42.736;23.346;2024-02-23T12:08:15;95112.69;;;18.09;52.11
20624;BME280;10471;42.736;23.346;2024-02-23T12:10:41;95120.31;;;18.19;49.64
20624;BME280;10471;42.736;23.346;2024-02-23T12:13:06;95106.59;;;18.41;49.82
20624;BME280;10471;42.736;23.346;2024-02-23T12:15:33;95113.09;;;18.51;48.65
20624;BME280;10471;42.736;23.346;2024-02-23T12:17:58;95116.34;;;18.25;49.95
20624;BME280;10471;42.736;23.346;2024-02-23T12:20:25;95102.38;;;18.28;48.31
20624;BME280;10471;42.736;23.346;2024-02-23T12:22:50;95108.84;;;18.50;48.23
20624;BME280;10471;42.736;23.346;2024-02-23T12:25:20;95103.19;;;18.40;49.37
20624;BME280;10471;42.736;23.346;2024-02-23T12:27:46;95110.97;;;18.45;48.18
20624;BME280;10471;42.736;23.346;2024-02-23T12:30:14;95107.41;;;18.53;48.22
20624;BME280;10471;42.736;23.346;2024-02-23T12:32:40;95107.53;;;18.56;49.21
20624;BME280;10471;42.736;23.346;2024-02-23T12:35:06;95098.44;;;18.57;49.70
20624;BME280;10471;42.736;23.346;2024-02-23T12:37:34;95091.28;;;18.38;48.37
20624;BME280;10471;42.736;23.346;2024-02-23T12:40:00;95091.69;;;18.28;48.90
20624;BME280;10471;42.736;23.346;2024-02-23T12:42:26;95091.84;;;18.67;48.54
20624;BME280;10471;42.736;23.346;2024-02-23T12:44:51;95087.97;;;18.76;47.86